createdAt,value
2022-08-03T00:02:17.052Z,1.87
2022-08-03T00:04:44.655Z,1.70
2022-08-03T00:07:11.744Z,1.80
2022-08-03T00:09:39.415Z,2.00
2022-08-03T00:12:07.373Z,2.00
2022-08-03T00:14:34.867Z,1.87
2022-08-03T00:17:02.236Z,1.93
2022-08-03T00:19:29.896Z,1.90
2022-08-03T00:21:57.243Z,2.00
2022-08-03T00:24:25.038Z,1.80
2022-08-03T00:26:52.519Z,1.60
2022-08-03T00:29:19.924Z,1.60
2022-08-03T00:31:52.459Z,1.70
2022-08-03T00:34:57.267Z,1.83
2022-08-03T00:37:14.654Z,1.70
2022-08-03T00:39:47.551Z,1.60
2022-08-03T00:42:15.261Z,1.87
2022-08-03T00:44:44.396Z,2.10
2022-08-03T00:47:12.216Z,1.77
2022-08-03T00:49:41.334Z,1.83
2022-08-03T00:52:14.072Z,1.80
2022-08-03T00:54:41.711Z,1.60
2022-08-03T00:57:09.354Z,1.80
2022-08-03T00:59:38.570Z,1.60
2022-08-03T01:02:06.437Z,1.63
2022-08-03T01:04:33.929Z,1.70
2022-08-03T01:07:29.151Z,1.67
2022-08-03T01:10:13.838Z,1.40
2022-08-03T01:13:06.315Z,1.50
2022-08-03T01:16:35.768Z,1.50
2022-08-03T01:19:20.724Z,1.50
2022-08-03T01:21:57.107Z,1.43
2022-08-03T01:24:46.678Z,1.83
2022-08-03T01:27:31.613Z,1.50
2022-08-03T01:30:08.102Z,1.70
2022-08-03T01:32:58.563Z,1.40
2022-08-03T01:36:02.542Z,1.80
2022-08-03T01:38:36.133Z,1.57
2022-08-03T01:41:07.915Z,1.83
2022-08-03T01:44:27.242Z,1.80
2022-08-03T01:46:26.602Z,1.77
2022-08-03T01:48:55.510Z,1.60
2022-08-03T01:51:24.394Z,1.60
2022-08-03T01:54:13.146Z,1.60
2022-08-03T01:56:43.241Z,1.70
2022-08-03T01:59:14.517Z,1.90
2022-08-03T02:02:28.250Z,1.60
2022-08-03T02:04:31.447Z,1.80
2022-08-03T02:07:03.124Z,1.80
2022-08-03T02:09:32.805Z,1.80
2022-08-03T02:12:01.303Z,1.60
2022-08-03T02:14:29.220Z,1.70
2022-08-03T02:16:59.079Z,1.53
2022-08-03T02:19:30.366Z,1.80
2022-08-03T02:22:02.487Z,1.70
2022-08-03T02:24:31.673Z,1.67
2022-08-03T02:27:00.674Z,1.47
2022-08-03T02:29:39.928Z,1.70
2022-08-03T02:32:18.175Z,1.43
2022-08-03T02:34:50.804Z,1.67
2022-08-03T02:37:20.333Z,1.80
2022-08-03T02:39:49.600Z,1.50
2022-08-03T02:42:19.314Z,1.47
2022-08-03T02:44:53.678Z,1.70
2022-08-03T02:47:22.514Z,1.57
2022-08-03T02:49:52.567Z,1.77
2022-08-03T02:52:25.917Z,1.47
2022-08-03T02:54:58.065Z,1.50
2022-08-03T02:57:28.391Z,1.57
2022-08-03T02:59:56.671Z,1.53
2022-08-03T03:02:26.418Z,1.40
2022-08-03T03:05:51.764Z,1.63
2022-08-03T03:07:51.472Z,1.70
2022-08-03T03:10:22.958Z,1.67
2022-08-03T03:12:56.665Z,1.70
2022-08-03T03:15:28.124Z,1.90
2022-08-03T03:17:56.665Z,1.57
2022-08-03T03:20:29.669Z,1.70
2022-08-03T03:23:02.519Z,1.57
2022-08-03T03:25:33.698Z,1.60
2022-08-03T03:28:02.551Z,1.73
2022-08-03T03:30:30.583Z,1.73
2022-08-03T03:32:59.741Z,2.03
2022-08-03T03:35:28.252Z,1.40
2022-08-03T03:37:56.155Z,1.80
2022-08-03T03:40:23.594Z,1.83
2022-08-03T03:42:51.506Z,1.90
2022-08-03T03:45:19.678Z,1.70
2022-08-03T03:47:47.329Z,1.93
2022-08-03T03:50:16.127Z,1.70
2022-08-03T03:52:43.933Z,1.50
2022-08-03T03:55:15.491Z,1.67
2022-08-03T03:57:42.935Z,1.73
2022-08-03T04:00:11.876Z,1.63
2022-08-03T04:02:39.980Z,1.50
2022-08-03T04:05:27.081Z,1.80
2022-08-03T04:08:32.613Z,1.80
2022-08-03T04:11:17.565Z,1.73
2022-08-03T04:13:55.653Z,1.80
2022-08-03T04:16:32.975Z,1.90
2022-08-03T04:19:05.640Z,2.23
2022-08-03T04:21:34.195Z,1.77
2022-08-03T04:24:04.697Z,1.90
2022-08-03T04:26:36.555Z,2.00
2022-08-03T04:29:06.365Z,1.97
2022-08-03T04:31:35.642Z,1.90
2022-08-03T04:34:04.002Z,1.80
2022-08-03T04:36:38.122Z,1.90
2022-08-03T04:39:11.244Z,1.87
2022-08-03T04:42:06.885Z,1.93
2022-08-03T04:44:28.974Z,1.77
2022-08-03T04:46:58.410Z,2.10
2022-08-03T04:49:26.822Z,2.20
2022-08-03T04:51:54.228Z,1.90
2022-08-03T04:54:24.129Z,2.10
2022-08-03T04:56:51.405Z,2.10
2022-08-03T04:59:18.681Z,1.87
2022-08-03T05:01:46.057Z,1.83
2022-08-03T05:04:13.729Z,1.60
2022-08-03T05:06:47.965Z,2.00
2022-08-03T05:09:16.308Z,1.70
2022-08-03T05:12:03.920Z,1.90
2022-08-03T05:14:31.263Z,1.60
2022-08-03T05:16:58.715Z,1.80
2022-08-03T05:19:25.976Z,1.67
2022-08-03T05:21:53.594Z,1.70
2022-08-03T05:24:21.153Z,1.80
2022-08-03T05:26:48.645Z,1.73
2022-08-03T05:29:15.984Z,1.60
2022-08-03T05:31:43.523Z,1.50
2022-08-03T05:34:10.746Z,1.60
2022-08-03T05:36:38.814Z,1.77
2022-08-03T05:39:06.377Z,1.90
2022-08-03T05:41:36.834Z,1.70
2022-08-03T05:44:05.162Z,1.50
2022-08-03T05:46:32.812Z,1.80
2022-08-03T05:49:00.218Z,1.57
2022-08-03T05:51:29.160Z,1.40
2022-08-03T05:53:56.979Z,1.30
2022-08-03T05:56:28.129Z,1.30
2022-08-03T05:58:55.675Z,1.40
2022-08-03T06:01:23.106Z,1.57
2022-08-03T06:03:52.604Z,1.70
2022-08-03T06:06:19.894Z,1.90
2022-08-03T06:08:49.104Z,1.60
2022-08-03T06:11:16.948Z,1.47
2022-08-03T06:13:45.335Z,1.40
2022-08-03T06:16:12.773Z,1.40
2022-08-03T06:18:41.227Z,1.50
2022-08-03T06:21:14.316Z,1.30
2022-08-03T06:23:52.880Z,1.43
2022-08-03T06:26:23.080Z,1.70
2022-08-03T06:28:52.192Z,1.70
2022-08-03T06:31:24.261Z,1.80
2022-08-03T06:34:32.099Z,1.50
2022-08-03T06:36:39.874Z,1.60
2022-08-03T06:39:08.226Z,1.60
2022-08-03T06:41:37.999Z,1.57
2022-08-03T06:44:12.716Z,1.70
2022-08-03T06:46:40.184Z,1.70
2022-08-03T06:49:08.330Z,1.70
2022-08-03T06:52:04.259Z,1.50
2022-08-03T06:54:24.719Z,1.77
2022-08-03T06:56:53.107Z,2.00
2022-08-03T07:00:09.554Z,1.83
2022-08-03T07:02:09.971Z,1.50
2022-08-03T07:04:37.608Z,1.43
2022-08-03T07:07:04.966Z,1.50
2022-08-03T07:09:32.637Z,1.30
2022-08-03T07:12:02.595Z,1.80
2022-08-03T07:14:31.073Z,1.40
2022-08-03T07:16:58.695Z,1.73
2022-08-03T07:19:26.445Z,1.40
2022-08-03T07:21:53.937Z,1.50
2022-08-03T07:24:26.240Z,1.50
2022-08-03T07:26:56.072Z,1.43
2022-08-03T07:29:23.804Z,1.40
2022-08-03T07:31:51.285Z,1.57
2022-08-03T07:34:18.830Z,1.50
2022-08-03T07:36:46.497Z,1.53
2022-08-03T07:39:16.630Z,1.70
2022-08-03T07:41:47.798Z,1.50
2022-08-03T07:44:15.394Z,1.33
2022-08-03T07:46:43.020Z,1.50
2022-08-03T07:49:11.515Z,1.67
2022-08-03T07:51:39.360Z,1.53
2022-08-03T07:54:08.061Z,1.40
2022-08-03T07:56:35.935Z,1.40
2022-08-03T07:59:04.337Z,1.67
2022-08-03T08:01:34.456Z,1.50
2022-08-03T08:04:02.013Z,1.60
2022-08-03T08:06:29.475Z,1.60
2022-08-03T08:09:02.074Z,1.70
2022-08-03T08:11:29.591Z,1.60
2022-08-03T08:13:59.424Z,1.57
2022-08-03T08:16:26.936Z,1.40
2022-08-03T08:18:54.464Z,1.67
2022-08-03T08:21:22.047Z,1.70
2022-08-03T08:23:55.641Z,1.60
2022-08-03T08:26:24.657Z,1.33
2022-08-03T08:28:53.152Z,1.60
2022-08-03T08:31:20.977Z,1.80
2022-08-03T08:34:03.670Z,1.70
2022-08-03T08:36:36.272Z,1.80
2022-08-03T08:39:04.184Z,1.40
2022-08-03T08:41:34.239Z,1.70
2022-08-03T08:44:02.810Z,2.17
2022-08-03T08:46:33.936Z,1.57
2022-08-03T08:49:05.103Z,1.60
2022-08-03T08:51:59.695Z,1.40
2022-08-03T08:54:27.087Z,1.50
2022-08-03T08:56:57.728Z,1.50
2022-08-03T08:59:25.797Z,1.70
2022-08-03T09:01:58.091Z,1.63
2022-08-03T09:04:26.033Z,1.63
2022-08-03T09:07:17.655Z,1.57
2022-08-03T09:10:10.965Z,1.47
2022-08-03T09:12:41.476Z,1.70
2022-08-03T09:15:21.923Z,1.80
2022-08-03T09:17:51.400Z,1.80
2022-08-03T09:20:20.703Z,1.63
2022-08-03T09:23:58.892Z,1.70
2022-08-03T09:26:01.985Z,1.60
2022-08-03T09:29:01.649Z,1.70
2022-08-03T09:31:43.026Z,1.77
2022-08-03T09:34:16.888Z,1.63
2022-08-03T09:36:49.790Z,1.53
2022-08-03T09:39:41.660Z,1.60
2022-08-03T09:42:15.528Z,1.63
2022-08-03T09:44:47.633Z,1.77
2022-08-03T09:47:18.069Z,1.90
2022-08-03T09:50:18.815Z,2.00
2022-08-03T09:52:52.670Z,1.87
2022-08-03T09:55:23.828Z,1.80
2022-08-03T09:58:10.853Z,1.90
2022-08-03T10:00:57.287Z,1.80
2022-08-03T10:03:26.597Z,1.70
2022-08-03T10:05:59.170Z,2.00
2022-08-03T10:08:28.058Z,1.57
2022-08-03T10:10:55.414Z,1.90
2022-08-03T10:13:23.806Z,1.70
2022-08-03T10:16:21.430Z,1.83
2022-08-03T10:18:39.054Z,1.77
2022-08-03T10:21:10.825Z,1.63
2022-08-03T10:23:41.776Z,1.87
2022-08-03T10:26:13.529Z,1.80
2022-08-03T10:28:47.937Z,1.70
2022-08-03T10:31:17.073Z,1.70
2022-08-03T10:33:52.853Z,2.00
2022-08-03T10:36:25.031Z,1.80
2022-08-03T10:38:53.978Z,1.53
2022-08-03T10:41:31.717Z,1.70
2022-08-03T10:44:07.972Z,1.60
2022-08-03T10:46:39.292Z,1.60
2022-08-03T10:49:13.776Z,1.77
2022-08-03T10:51:43.056Z,1.50
2022-08-03T10:55:10.868Z,1.73
2022-08-03T10:57:52.548Z,1.80
2022-08-03T11:00:28.171Z,1.80
2022-08-03T11:03:08.976Z,1.50
2022-08-03T11:05:42.253Z,1.53
2022-08-03T11:08:35.082Z,1.70
2022-08-03T11:11:28.847Z,1.80
2022-08-03T11:14:08.964Z,1.73
2022-08-03T11:16:39.571Z,1.90
2022-08-03T11:19:10.910Z,1.70
2022-08-03T11:21:53.942Z,1.50
2022-08-03T11:24:44.039Z,1.70
2022-08-03T11:27:17.258Z,1.90
2022-08-03T11:30:20.553Z,1.60
2022-08-03T11:32:58.989Z,1.70
2022-08-03T11:35:29.758Z,1.90
2022-08-03T11:38:05.335Z,1.63
2022-08-03T11:40:37.765Z,1.80
2022-08-03T11:43:06.832Z,1.97
2022-08-03T11:45:35.468Z,1.90
2022-08-03T11:48:18.152Z,1.73
2022-08-03T11:50:45.806Z,1.60
2022-08-03T11:53:19.097Z,1.70
2022-08-03T11:55:50.663Z,2.00
2022-08-03T11:59:16.736Z,2.00
2022-08-03T12:01:13.382Z,1.83
2022-08-03T12:03:40.664Z,1.87
2022-08-03T12:06:13.095Z,1.83
2022-08-03T12:08:42.661Z,1.90
2022-08-03T12:11:12.650Z,1.80
2022-08-03T12:14:35.822Z,1.90
2022-08-03T12:16:36.314Z,1.80
2022-08-03T12:19:07.141Z,1.93
2022-08-03T12:21:34.692Z,1.67
2022-08-03T12:24:04.878Z,1.90
2022-08-03T12:26:58.519Z,2.00
2022-08-03T12:29:26.834Z,2.10
2022-08-03T12:31:54.084Z,2.00
2022-08-03T12:34:21.486Z,1.60
2022-08-03T12:36:56.702Z,1.93
2022-08-03T12:39:25.988Z,1.87
2022-08-03T12:41:55.195Z,1.80
2022-08-03T12:44:36.718Z,2.10
2022-08-03T12:47:06.938Z,1.87
2022-08-03T12:49:48.867Z,2.20
2022-08-03T12:52:17.827Z,2.20
2022-08-03T12:54:59.446Z,1.90
2022-08-03T12:57:43.733Z,2.03
2022-08-03T13:00:21.419Z,2.20
2022-08-03T13:03:39.716Z,2.20
2022-08-03T13:05:52.437Z,1.90
2022-08-03T13:08:24.952Z,1.93
2022-08-03T13:10:52.712Z,2.10
2022-08-03T13:13:38.497Z,1.90
2022-08-03T13:16:06.090Z,2.40
2022-08-03T13:18:33.609Z,1.93
2022-08-03T13:21:02.237Z,2.00
2022-08-03T13:23:30.274Z,2.17
2022-08-03T13:25:57.775Z,1.93
2022-08-03T13:28:25.249Z,2.17
2022-08-03T13:30:54.780Z,2.30
2022-08-03T13:33:22.352Z,2.50
2022-08-03T13:35:49.846Z,2.10
2022-08-03T13:38:17.839Z,2.00
2022-08-03T13:40:50.077Z,2.20
2022-08-03T13:43:17.714Z,1.87
2022-08-03T13:45:51.262Z,1.90
2022-08-03T13:48:37.670Z,1.93
2022-08-03T13:51:22.011Z,2.00
2022-08-03T13:53:51.816Z,1.70
2022-08-03T13:56:19.461Z,1.97
2022-08-03T13:58:46.999Z,1.80
2022-08-03T14:01:14.645Z,1.90
2022-08-03T14:03:42.383Z,1.90
2022-08-03T14:06:09.998Z,1.83
2022-08-03T14:08:37.898Z,2.27
2022-08-03T14:11:05.545Z,2.00
2022-08-03T14:13:33.349Z,2.07
2022-08-03T14:16:00.885Z,2.20
2022-08-03T14:18:33.865Z,1.90
2022-08-03T14:21:07.350Z,2.30
2022-08-03T14:23:36.742Z,2.00
2022-08-03T14:26:08.331Z,2.20
2022-08-03T14:28:36.371Z,1.70
2022-08-03T14:31:04.736Z,1.90
2022-08-03T14:33:36.203Z,2.03
2022-08-03T14:36:03.722Z,1.93
2022-08-03T14:38:31.518Z,2.10
2022-08-03T14:40:58.837Z,2.00
2022-08-03T14:43:26.399Z,2.10
2022-08-03T14:46:02.126Z,2.20
2022-08-03T14:50:29.129Z,2.03
2022-08-03T14:51:17.996Z,1.80
2022-08-03T14:53:47.377Z,2.00
2022-08-03T14:56:15.343Z,1.90
2022-08-03T14:58:43.062Z,1.70
2022-08-03T15:02:03.240Z,1.90
2022-08-03T15:03:58.071Z,2.30
2022-08-03T15:06:25.690Z,2.13
2022-08-03T15:09:22.794Z,2.10
2022-08-03T15:11:42.624Z,2.20
2022-08-03T15:14:10.318Z,1.92
2022-08-03T15:16:41.671Z,2.30
2022-08-03T15:20:02.353Z,2.07
2022-08-03T15:21:57.067Z,2.10
2022-08-03T15:24:34.002Z,2.30
2022-08-03T15:27:02.062Z,2.10
2022-08-03T15:30:09.433Z,1.93
2022-08-03T15:32:22.974Z,2.20
2022-08-03T15:34:52.292Z,2.00
2022-08-03T15:37:21.089Z,1.93
2022-08-03T15:39:59.328Z,2.00
2022-08-03T15:42:29.943Z,1.90
2022-08-03T15:44:57.690Z,2.00
2022-08-03T15:47:25.676Z,2.07
2022-08-03T15:49:53.403Z,2.33
2022-08-03T15:52:22.303Z,2.17
2022-08-03T15:54:50.187Z,2.10
2022-08-03T15:57:17.933Z,2.27
2022-08-03T15:59:45.602Z,2.00
2022-08-03T16:02:15.420Z,2.27
2022-08-03T16:04:43.037Z,1.60
2022-08-03T16:07:12.728Z,2.03
2022-08-03T16:09:42.352Z,1.85
2022-08-03T16:12:15.903Z,2.03
2022-08-03T16:14:53.814Z,1.88
2022-08-03T16:17:22.876Z,1.87
2022-08-03T16:19:54.731Z,1.80
2022-08-03T16:22:26.249Z,1.92
2022-08-03T16:24:55.542Z,1.90
2022-08-03T16:28:00.361Z,2.00
2022-08-03T16:30:15.747Z,1.98
2022-08-03T16:32:44.914Z,1.77
2022-08-03T16:35:19.168Z,2.20
2022-08-03T16:37:50.751Z,2.20
2022-08-03T16:40:25.345Z,2.10
2022-08-03T16:42:53.315Z,2.20
2022-08-03T16:45:20.891Z,2.00
2022-08-03T16:47:49.072Z,1.90
2022-08-03T16:50:33.551Z,1.90
2022-08-03T16:53:03.905Z,1.98
2022-08-03T16:55:43.629Z,2.17
2022-08-03T16:58:34.522Z,2.10
2022-08-03T17:01:21.486Z,1.97
2022-08-03T17:04:02.117Z,2.20
2022-08-03T17:06:36.041Z,1.77
2022-08-03T17:09:10.018Z,2.10
2022-08-03T17:11:47.162Z,2.00
2022-08-03T17:14:22.115Z,1.93
2022-08-03T17:16:54.994Z,2.03
2022-08-03T17:19:24.221Z,2.03
2022-08-03T17:22:09.562Z,2.10
2022-08-03T17:24:46.054Z,2.10
2022-08-03T17:28:48.438Z,2.00
2022-08-03T17:30:11.866Z,2.30
2022-08-03T17:32:52.464Z,1.88
2022-08-03T17:35:34.504Z,2.07
2022-08-03T17:38:08.887Z,1.90
2022-08-03T17:40:48.306Z,2.10
2022-08-03T17:44:13.379Z,2.15
2022-08-03T17:46:10.770Z,2.23
2022-08-03T17:48:42.048Z,1.90
2022-08-03T17:51:46.232Z,1.93
2022-08-03T17:55:50.597Z,2.10
2022-08-03T17:57:29.065Z,2.17
2022-08-03T18:00:37.045Z,2.17
2022-08-03T18:03:27.125Z,2.33
2022-08-03T18:06:11.342Z,2.17
2022-08-03T18:08:50.835Z,2.07
2022-08-03T18:11:35.737Z,2.13
2022-08-03T18:14:16.916Z,2.20
2022-08-03T18:16:51.186Z,2.20
2022-08-03T18:19:19.792Z,2.43
2022-08-03T18:22:03.464Z,2.57
2022-08-03T18:24:32.815Z,2.33
2022-08-03T18:27:03.135Z,2.00
2022-08-03T18:29:31.149Z,2.23
2022-08-03T18:32:03.716Z,2.10
2022-08-03T18:34:34.584Z,2.30
2022-08-03T18:37:07.195Z,2.40
2022-08-03T18:39:49.879Z,2.20
2022-08-03T18:42:27.188Z,2.17
2022-08-03T18:44:56.753Z,2.30
2022-08-03T18:47:51.542Z,2.00
2022-08-03T18:50:30.555Z,1.97
2022-08-03T18:53:19.659Z,2.10
2022-08-03T18:56:02.237Z,2.00
2022-08-03T18:59:02.262Z,2.00
2022-08-03T19:02:00.794Z,2.23
2022-08-03T19:04:36.677Z,2.00
2022-08-03T19:07:11.057Z,2.13
2022-08-03T19:09:52.976Z,1.80
2022-08-03T19:12:37.863Z,1.97
2022-08-03T19:15:12.828Z,2.17
2022-08-03T19:18:04.835Z,2.00
2022-08-03T19:20:35.291Z,1.90
2022-08-03T19:23:03.032Z,2.00
2022-08-03T19:28:18.715Z,1.90
2022-08-03T19:30:53.707Z,1.80
2022-08-03T19:33:22.867Z,2.00
2022-08-03T19:35:56.805Z,2.07
2022-08-03T19:38:28.146Z,2.03
2022-08-03T19:41:00.063Z,1.90
2022-08-03T19:43:53.788Z,2.07
2022-08-03T19:46:40.058Z,1.67
2022-08-03T19:49:15.286Z,1.80
2022-08-03T19:52:01.407Z,1.80
2022-08-03T19:54:53.057Z,1.90
2022-08-03T19:57:25.575Z,1.63
2022-08-03T19:59:56.596Z,1.83
2022-08-03T20:02:27.229Z,1.87
2022-08-03T20:04:59.893Z,1.90
2022-08-03T20:07:31.153Z,1.70
2022-08-03T20:10:01.560Z,1.80
2022-08-03T20:12:33.203Z,1.97
2022-08-03T20:15:06.833Z,1.90
2022-08-03T20:17:56.950Z,1.53
2022-08-03T20:20:35.077Z,1.67
2022-08-03T20:23:07.328Z,1.80
2022-08-03T20:25:57.172Z,1.70
2022-08-03T20:28:49.684Z,1.70
2022-08-03T20:31:32.626Z,1.90
2022-08-03T20:34:04.512Z,2.00
2022-08-03T20:36:32.087Z,1.67
2022-08-03T20:39:00.449Z,1.80
2022-08-03T20:41:28.261Z,1.93
2022-08-03T20:43:59.380Z,1.80
2022-08-03T20:46:31.377Z,1.77
2022-08-03T20:49:18.985Z,1.90
2022-08-03T20:51:50.626Z,1.60
2022-08-03T20:54:30.992Z,1.63
2022-08-03T20:57:03.623Z,1.83
2022-08-03T20:59:50.078Z,1.83
2022-08-03T21:02:29.454Z,1.70
2022-08-03T21:05:09.160Z,1.70
2022-08-03T21:08:06.282Z,2.00
2022-08-03T21:10:39.026Z,2.13
2022-08-03T21:13:02.099Z,1.83
2022-08-03T21:13:18.444Z,1.67
2022-08-03T21:16:11.823Z,1.70
2022-08-03T21:18:50.145Z,1.80
2022-08-03T21:21:20.695Z,1.93
2022-08-03T21:23:52.972Z,1.80
2022-08-03T21:26:23.194Z,1.80
2022-08-03T21:28:53.889Z,1.70
2022-08-03T21:31:25.098Z,1.90
2022-08-03T21:34:01.938Z,1.60
2022-08-03T21:36:32.045Z,1.70
2022-08-03T21:39:01.514Z,1.90
2022-08-03T21:41:31.866Z,1.87
2022-08-03T21:44:00.726Z,2.20
2022-08-03T21:46:35.301Z,1.70
2022-08-03T21:50:04.174Z,1.63
2022-08-03T21:51:54.926Z,1.60
2022-08-03T21:54:27.640Z,1.80
2022-08-03T21:56:56.321Z,1.70
2022-08-03T21:59:23.990Z,1.90
2022-08-03T22:01:55.521Z,1.73
2022-08-03T22:04:53.144Z,1.70
2022-08-03T22:07:16.012Z,1.50
2022-08-03T22:09:50.097Z,1.37
2022-08-03T22:12:24.267Z,1.80
2022-08-03T22:15:00.155Z,1.63
2022-08-03T22:17:55.463Z,1.80
2022-08-03T22:20:20.231Z,1.70
2022-08-03T22:22:56.095Z,1.83
2022-08-03T22:25:32.663Z,1.50
2022-08-03T22:28:12.074Z,1.70
2022-08-03T22:30:40.685Z,1.60
2022-08-03T22:33:11.989Z,1.70
2022-08-03T22:35:48.291Z,1.57
2022-08-03T22:38:18.276Z,1.73
2022-08-03T22:40:49.092Z,1.80
2022-08-03T22:43:17.449Z,1.60
2022-08-03T22:46:09.802Z,1.70
2022-08-03T22:48:41.306Z,1.73
2022-08-03T22:51:12.130Z,1.83
2022-08-03T22:53:40.994Z,1.53
2022-08-03T22:56:09.166Z,1.43
2022-08-03T22:58:36.536Z,1.63
2022-08-03T23:01:08.187Z,1.70
2022-08-03T23:04:00.228Z,1.70
2022-08-03T23:06:30.654Z,1.80
2022-08-03T23:08:58.693Z,1.63
2022-08-03T23:11:27.873Z,1.60
2022-08-03T23:13:59.209Z,1.67
2022-08-03T23:16:27.908Z,1.50
2022-08-03T23:18:59.798Z,1.90
2022-08-03T23:21:53.872Z,1.70
2022-08-03T23:24:34.824Z,1.70
2022-08-03T23:27:05.102Z,1.67
2022-08-03T23:29:35.106Z,1.53
2022-08-03T23:32:03.196Z,1.50
2022-08-03T23:34:50.374Z,1.47
2022-08-03T23:37:20.049Z,1.70
2022-08-03T23:39:49.045Z,1.57
2022-08-03T23:42:19.235Z,1.50
2022-08-03T23:44:47.547Z,1.90
2022-08-03T23:47:15.228Z,1.63
2022-08-03T23:49:42.668Z,1.57
2022-08-03T23:52:27.638Z,1.53
2022-08-03T23:55:03.347Z,1.90
2022-08-03T23:57:52.221Z,1.83
